Home > Products > Valid Products > TAF

000
FTUS45 KRIW 021100
TAFRIW
TAF
KRIW 021122Z 0212/0312 27007KT P6SM SKC
     FM021400 VRB05KT P6SM SKC
     FM022130 25014G22KT P6SM SKC
     FM030200 29010KT P6SM SKC=



000
FTUS45 KRIW 021100
TAFRKS
TAF
KRKS 021122Z 0212/0312 25005KT P6SM SKC
     FM021600 23010G15KT P6SM SKC
     FM021900 25020G30KT P6SM SKC
     FM030130 27018KT P6SM SKC
     FM030400 22007KT P6SM SKC=



000
FTUS45 KRIW 021100
TAFCPR
TAF
KCPR 021122Z 0212/0312 VRB05KT P6SM SKC
     FM021400 22008KT P6SM SKC
     FM021800 24018G30KT P6SM SKC
     FM030130 23010G15KT P6SM SKC=



000
FTUS45 KRIW 021100
TAFWRL
TAF
KWRL 021122Z 0212/0312 VRB05KT P6SM SKC=



000
FTUS45 KRIW 021100
TAFBPI
TAF
KBPI 021122Z 0212/0312 VRB05KT P6SM SKC
     FM022100 26012G18KT P6SM SKC
     FM030100 33007KT P6SM SKC=



000
FTUS45 KRIW 021100
TAFCOD
TAF
KCOD 021122Z 0212/0312 21007KT P6SM SKC
      AMD LTD TO CLD VIS AND WIND=



000
FTUS45 KRIW 021100
TAFLND
TAF
KLND 021122Z 0212/0312 VRB05KT P6SM SKC
     FM022100 26014G22KT P6SM SKC
     FM030200 25011KT P6SM SKC=



000
FTUS45 KRIW 021100
TAFJAC
TAF
KJAC 021122Z 0212/0312 VRB05KT P6SM SKC
     FM021800 19013G19KT P6SM SKC
     FM030100 VRB05KT P6SM SKC
      AMD LTD TO CLD VIS AND WIND=



000
FTUS45 KRIW 020500
TAFLND
TAF
KLND 020522Z 0206/0306 VRB05KT P6SM SKC
     FM022100 26014G22KT P6SM SKC
     FM030200 25011KT P6SM SKC=



000
FTUS45 KRIW 020500
TAFWRL
TAF
KWRL 020522Z 0206/0306 16006KT P6SM SKC=



000
FTUS45 KRIW 020500
TAFJAC
TAF
KJAC 020522Z 0206/0306 VRB05KT P6SM SKC
     FM021800 19013G19KT P6SM SKC
     FM030100 VRB05KT P6SM SKC
      AMD LTD TO CLD VIS AND WIND=



000
FTUS45 KRIW 020500
TAFCPR
TAF
KCPR 020522Z 0206/0306 VRB05KT P6SM SKC
     FM021000 22008KT P6SM SKC
     FM021800 24018G30KT P6SM SKC
     FM030130 23010G15KT P6SM SKC=



000
FTUS45 KRIW 020500
TAFBPI
TAF
KBPI 020522Z 0206/0306 VRB05KT P6SM SKC
     FM022100 26012G18KT P6SM SKC
     FM030100 33007KT P6SM SKC=



000
FTUS45 KRIW 020500
TAFRKS
TAF
KRKS 020522Z 0206/0306 VRB05KT P6SM SKC
     FM021600 23010G15KT P6SM SKC
     FM021900 25020G30KT P6SM SKC
     FM030130 27018KT P6SM SKC
     FM030400 22007KT P6SM SKC=



000
FTUS45 KRIW 020500
TAFRIW
TAF
KRIW 020522Z 0206/0306 30010KT P6SM SKC
     FM021400 VRB05KT P6SM SKC
     FM022130 25014G22KT P6SM SKC
     FM030200 29010KT P6SM SKC=



000
FTUS45 KRIW 020500
TAFCOD
TAF
KCOD 020522Z 0206/0306 21007KT P6SM SKC
      AMD LTD TO CLD VIS AND WIND=



000
FTUS45 KRIW 012300
TAFLND
TAF
KLND 012324Z 0200/0224 VRB05KT P6SM FEW090
     FM020100 24008KT P6SM SKC=



000
FTUS45 KRIW 012300
TAFBPI
TAF
KBPI 012324Z 0200/0224 30013G22KT P6SM SKC
     FM020200 34009KT P6SM SKC
     FM020700 VRB04KT P6SM SKC=



000
FTUS45 KRIW 012300
TAFRKS
TAF
KRKS 012324Z 0200/0224 27015G25KT P6SM SKC
     FM020200 28012G18KT P6SM SKC
     FM020600 25008KT P6SM SKC
     FM021800 24018G26KT P6SM SKC=



000
FTUS45 KRIW 012300
TAFCPR
TAF
KCPR 012324Z 0200/0224 30010KT P6SM VCSH SCT080
     FM020100 36006KT P6SM FEW090
     FM020800 22008KT P6SM SKC
     FM021800 23016G24KT P6SM SKC=



000
FTUS45 KRIW 012300
TAFWRL
TAF
KWRL 012324Z 0200/0224 VRB05KT P6SM FEW070
     FM020200 16006KT P6SM SKC=



000
FTUS45 KRIW 012300
TAFCOD
TAF
KCOD 012324Z 0200/0224 VRB05KT P6SM FEW080
     FM020400 21007KT P6SM SKC
      AMD LTD TO CLD VIS AND WIND=



000
FTUS45 KRIW 012300
TAFRIW
TAF
KRIW 012324Z 0200/0224 33015G25KT P6SM FEW090
     FM020200 30010KT P6SM SKC=



000
FTUS45 KRIW 012300
TAFJAC
TAF
KJAC 012324Z 0200/0224 22011KT P6SM FEW050
     FM020200 VRB05KT P6SM SKC
     FM021800 19013G19KT P6SM SKC
      AMD LTD TO CLD VIS AND WIND=



000
FTUS45 KRIW 012200 AAA
TAFRIW
TAF AMD
KRIW 012234Z 0123/0218 33015G25KT P6SM FEW090
     FM020200 30010KT P6SM SKC=



000
FTUS45 KRIW 012200 AAA
TAFCPR
TAF AMD
KCPR 012213Z 0122/0218 30010KT P6SM VCSH SCT060 BKN150
     FM020100 VRB05KT P6SM FEW090
     FM020800 22008KT P6SM SKC=



000
FTUS45 KRIW 011700
TAFWRL
TAF
KWRL 011720Z 0118/0218 35008KT P6SM VCSH SCT040 BKN070
     FM011900 02007KT P6SM FEW070
     FM020200 16006KT P6SM SKC=



000
FTUS45 KRIW 011700
TAFBPI
TAF
KBPI 011720Z 0118/0218 28008KT P6SM SKC
     FM012100 29013G22KT P6SM SKC
     FM020100 34009KT P6SM SKC
     FM020700 VRB04KT P6SM SKC=



000
FTUS45 KRIW 011700
TAFJAC
TAF
KJAC 011720Z 0118/0218 22007KT P6SM FEW040
     FM011900 26011KT P6SM FEW050
     FM020100 VRB05KT P6SM SKC
      AMD LTD TO CLD VIS AND WIND=



000
FTUS45 KRIW 011700
TAFCPR
TAF
KCPR 011720Z 0118/0218 20006KT P6SM VCSH BKN060 OVC150
     FM012200 27013KT P6SM SCT060
     FM020200 VRB05KT P6SM FEW090
     FM020800 22008KT P6SM SKC=



000
FTUS45 KRIW 011700
TAFRIW
TAF
KRIW 011720Z 0118/0218 34006KT P6SM SCT090
     FM020200 30010KT P6SM SKC=



000
FTUS45 KRIW 011700
TAFCOD
TAF
KCOD 011720Z 0118/0218 VRB05KT P6SM VCSH FEW020 BKN040
     FM012000 12007KT P6SM SCT050
     FM020400 21007KT P6SM SKC
      AMD LTD TO CLD VIS AND WIND=



000
FTUS45 KRIW 011700
TAFRKS
TAF
KRKS 011720Z 0118/0218 27020G30KT P6SM SKC
     FM020100 28012G18KT P6SM SKC
     FM020600 25008KT P6SM SKC=



000
FTUS45 KRIW 011700
TAFLND
TAF
KLND 011720Z 0118/0218 02006KT P6SM SCT090
     FM020100 24008KT P6SM SKC=



000
FTUS45 KRIW 011100
TAFCPR
TAF
KCPR 011128Z 0112/0212 20006KT P6SM VCSH BKN060 OVC150
     FM012200 31011KT P6SM SCT060
     FM020200 VRB05KT P6SM FEW090
     FM020800 22008KT P6SM SKC=



000
FTUS45 KRIW 011100
TAFJAC
TAF
KJAC 011128Z 0112/0212 36005KT P6SM VCFG FEW003 SCT050
      TEMPO 0112/0115 3SM BR SCT003
     FM011500 22007KT P6SM FEW040
     FM011900 26011KT P6SM FEW050
     FM020100 VRB05KT P6SM SKC
      AMD LTD TO CLD VIS AND WIND=



000
FTUS45 KRIW 011100
TAFRKS
TAF
KRKS 011128Z 0112/0212 20006KT P6SM SCT200
     FM011500 26012KT P6SM SKC
     FM011800 27020G30KT P6SM SKC
     FM020100 28012G18KT P6SM SKC
     FM020600 25008KT P6SM SKC=



000
FTUS45 KRIW 011100
TAFRIW
TAF
KRIW 011128Z 0112/0212 28005KT P6SM FEW080 SCT150
     FM011600 34006KT P6SM SCT090
     FM020200 30010KT P6SM SKC=



000
FTUS45 KRIW 011100
TAFWRL
TAF
KWRL 011128Z 0112/0212 VRB05KT P6SM VCSH SCT060 BKN080
     FM011600 35008KT P6SM VCSH SCT040 BKN070
     FM011900 02007KT P6SM FEW070
     FM020200 16006KT P6SM SKC=



000
FTUS45 KRIW 011100
TAFLND
TAF
KLND 011128Z 0112/0212 VRB05KT P6SM FEW070 SCT150
     FM011600 02006KT P6SM SCT090
     FM020100 24008KT P6SM SKC=



000
FTUS45 KRIW 011100
TAFBPI
TAF
KBPI 011128Z 0112/0212 VRB05KT P6SM FEW110
     FM011700 28008KT P6SM SKC
     FM012100 29013G22KT P6SM SKC
     FM020100 34009KT P6SM SKC
     FM020700 VRB04KT P6SM SKC=



000
FTUS45 KRIW 011100
TAFCOD
TAF
KCOD 011128Z 0112/0212 23010KT P6SM VCSH SCT040 BKN070
      TEMPO 0113/0116 6SM -SHRA BR FEW025 BKN040
     FM011600 VRB05KT P6SM VCSH FEW020 BKN040
     FM012000 12007KT P6SM SCT050
     FM020400 21007KT P6SM SKC
      AMD LTD TO CLD VIS AND WIND=



000
FTUS45 KRIW 010500
TAFWRL
TAF
KWRL 010535Z 0106/0206 VRB05KT P6SM SCT070 BKN100
     FM011200 35008KT P6SM VCSH SCT040 BKN070
     FM011900 02007KT P6SM FEW070
     FM020200 16006KT P6SM SKC=



000
FTUS45 KRIW 010500
TAFJAC
TAF
KJAC 010535Z 0106/0206 36005KT P6SM VCFG FEW005 SCT040
     FM011500 22007KT P6SM FEW040
     FM011900 26011KT P6SM FEW050
     FM020100 VRB05KT P6SM SKC
      AMD LTD TO CLD VIS AND WIND=



000
FTUS45 KRIW 010500
TAFCPR
TAF
KCPR 010535Z 0106/0206 24007KT P6SM SCT060 SCT150
     FM011200 20006KT P6SM VCSH BKN060 OVC150
     FM012200 31011KT P6SM SCT060
     FM020200 VRB05KT P6SM FEW090=



000
FTUS45 KRIW 010500
TAFCOD
TAF
KCOD 010535Z 0106/0206 VRB05KT P6SM VCSH SCT060 BKN110
     FM010900 VRB04KT P6SM VCSH BKN050
     FM011200 VRB05KT 5SM -SHRA BR FEW015 BKN040 OVC050
     FM011600 VRB05KT P6SM VCSH FEW020 BKN040
     FM012000 12007KT P6SM SCT050
     FM020400 21007KT P6SM SKC
      AMD LTD TO CLD VIS AND WIND=



000
FTUS45 KRIW 010500
TAFLND
TAF
KLND 010535Z 0106/0206 24007KT P6SM FEW060 SCT150
     FM011600 02006KT P6SM SCT090
     FM020100 24008KT P6SM SKC=



000
FTUS45 KRIW 010500
TAFRIW
TAF
KRIW 010535Z 0106/0206 VRB05KT P6SM FEW080 SCT150
     FM011600 34006KT P6SM SCT090
     FM020200 30010KT P6SM SKC=



000
FTUS45 KRIW 010500
TAFRKS
TAF
KRKS 010535Z 0106/0206 29010G18KT P6SM SKC
     FM010800 24007KT P6SM SKC
     FM011500 26012KT P6SM SKC
     FM011800 27020G30KT P6SM SKC
     FM020100 28012G18KT P6SM SKC=



000
FTUS45 KRIW 010500
TAFBPI
TAF
KBPI 010535Z 0106/0206 VRB05KT P6SM SKC
     FM011700 28008KT P6SM SKC
     FM012100 29013G22KT P6SM SKC
     FM020100 34009KT P6SM SKC=



000
FTUS45 KRIW 312300
TAFRIW
TAF
KRIW 312321Z 0100/0124 06007KT P6SM SCT060 BKN090
     FM010400 VRB05KT P6SM FEW060
     FM011600 32006KT P6SM SKC
     FM012100 26008KT P6SM SKC=



000
FTUS45 KRIW 312300
TAFWRL
TAF
KWRL 312321Z 0100/0124 02006KT P6SM VCTS SCT060CB BKN090
     FM010200 VRB06KT P6SM VCSH SCT070 BKN100
     FM011900 02007KT P6SM FEW060=



000
FTUS45 KRIW 312300
TAFJAC
TAF
KJAC 312321Z 0100/0124 24007KT P6SM SCT030 BKN060
     FM010400 VRB05KT P6SM SCT040
     FM011000 VRB04KT P6SM VCFG FEW005 SCT040 SCT120
     FM011500 23009KT P6SM FEW040
     FM011900 26012KT P6SM FEW050
      AMD LTD TO CLD VIS AND WIND=



000
FTUS45 KRIW 312300
TAFLND
TAF
KLND 312321Z 0100/0124 04007KT P6SM SCT060 BKN090
     FM010200 VRB06KT P6SM SCT060
     FM010800 23006KT P6SM BKN150
     FM011600 02006KT P6SM SKC=



000
FTUS45 KRIW 312300
TAFRKS
TAF
KRKS 312321Z 0100/0124 29014G24KT P6SM SCT060
     FM010200 26011KT P6SM FEW060
     FM010800 23007KT P6SM SCT150
     FM011700 26012KT P6SM SKC
     FM011900 27016G25KT P6SM SKC=



000
FTUS45 KRIW 312300
TAFCPR
TAF
KCPR 312321Z 0100/0124 35010KT P6SM VCSH SCT060 BKN090
     FM010130 02008KT P6SM SCT080
     FM010800 24007KT P6SM SCT060 SCT150
     FM011200 20006KT P6SM VCSH BKN060 OVC150
     FM012200 31011KT P6SM SCT060=



000
FTUS45 KRIW 312300
TAFCOD
TAF
KCOD 312321Z 0100/0124 NIL=



000
FTUS45 KRIW 312300
TAFBPI
TAF
KBPI 312321Z 0100/0124 33012G18KT P6SM BKN060
     FM010200 34009KT P6SM SCT060
     FM010500 VRB05KT P6SM SKC
     FM011700 28008KT P6SM SKC
     FM012100 29013G22KT P6SM SKC=



000
FTUS45 KRIW 312000 AAA
TAFJAC
TAF AMD
KJAC 312056Z 3121/0118 22011KT P6SM VCSH FEW030 SCT060 BKN090
     FM010400 22005KT P6SM SCT040
     FM011000 VRB04KT P6SM VCFG FEW005 SCT040 SCT120
     FM011500 23009KT P6SM FEW040
      AMD LTD TO CLD VIS AND WIND=



000
FTUS45 KRIW 311700
TAFWRL
TAF
KWRL 311720Z 3118/0118 35011KT P6SM VCSH SCT050 BKN100
      TEMPO 3118/3120 VRB15G21KT -TSRA BKN020CB
     FM312000 34011KT P6SM VCSH FEW050 BKN100
     FM010000 02006KT P6SM BKN120
     FM011200 VRB08KT P6SM VCSH SCT050 BKN120=



000
FTUS45 KRIW 311700
TAFRKS
TAF
KRKS 311720Z 3118/0118 26020G30KT P6SM FEW050
     FM010200 27011KT P6SM SKC
     FM010800 25006KT P6SM SKC
     FM011700 26012KT P6SM FEW050=



000
FTUS45 KRIW 311700
TAFCPR
TAF
KCPR 311720Z 3118/0118 25020G30KT P6SM VCSH SCT060 BKN100
     FM312200 35015KT P6SM VCSH SCT060 BKN090
     FM010130 02008KT P6SM SCT080
     FM010800 24007KT P6SM SCT060 SCT150=



000
FTUS45 KRIW 311700
TAFLND
TAF
KLND 311720Z 3118/0118 34010KT P6SM VCSH SCT070
     FM312300 02010KT P6SM SCT060 SCT080
     FM010200 VRB06KT P6SM SCT060
     FM010800 23006KT P6SM BKN150
     FM011600 01006KT P6SM SKC=



000
FTUS45 KRIW 311700
TAFRIW
TAF
KRIW 311720Z 3118/0118 33008KT P6SM VCSH SCT060 SCT090
     FM312300 02011KT P6SM SCT060
     FM010400 VRB05KT P6SM FEW060
     FM011600 32006KT P6SM SKC=



000
FTUS45 KRIW 311700
TAFBPI
TAF
KBPI 311720Z 3118/0118 32014G24KT P6SM BKN070
     FM010100 34009KT P6SM FEW050
     FM010500 VRB05KT P6SM SKC
     FM011700 28008KT P6SM SKC=



000
FTUS45 KRIW 311700
TAFCOD
TAF
KCOD 311720Z 3118/0118 VRB06KT P6SM VCSH OVC060
     FM010300 VRB05KT P6SM VCSH SCT050 BKN150
     FM010900 VRB04KT P6SM VCSH BKN050
     FM011200 VRB05KT 5SM -SHRA BR FEW015 SCT040 OVC050
     FM011600 VRB05KT P6SM VCSH FEW020 SCT040
      AMD LTD TO CLD VIS AND WIND=



000
FTUS45 KRIW 311700
TAFJAC
TAF
KJAC 311720Z 3118/0118 24011KT P6SM VCSH SCT020 BKN050
      TEMPO 3118/3122 6SM -SHRA BR BKN015
     FM312200 26011KT P6SM VCSH BKN030
     FM010400 22005KT P6SM SCT040
     FM011000 VRB04KT P6SM VCFG FEW005 SCT040 SCT120
     FM011500 23009KT P6SM FEW040
      AMD LTD TO CLD VIS AND WIND=



000
FTUS45 KRIW 311500 AAB
TAFJAC
TAF AMD
KJAC 311553Z 3116/0112 VRB06KT P6SM VCSH SCT015 OVC050
      TEMPO 3116/3117 5SM SHRA BR BKN015
     FM311800 24011KT P6SM VCSH SCT030 BKN060
     FM010100 25008KT P6SM BKN060
     FM010600 VRB04KT P6SM VCFG SCT005 SCT060
      AMD LTD TO CLD VIS AND WIND=



000
FTUS45 KRIW 311400 AAA
TAFRKS
TAF AMD
KRKS 311414Z 3114/0112 27015G24KT P6SM -SHRA SCT045 BKN050
     FM311500 27017G27KT P6SM BKN060
     FM311700 27023G33KT P6SM SCT070
     FM010100 29014G24KT P6SM FEW090
     FM010600 25010KT P6SM SKC=



000
FTUS45 KRIW 311400 AAA
TAFJAC
TAF AMD
KJAC 311412Z 3114/0112 VRB06KT P6SM VCSH SCT015 OVC050
      TEMPO 3114/3116 6SM -SHRA BR BKN015
     FM311800 24011KT P6SM VCSH SCT030 BKN060
     FM010100 25008KT P6SM BKN060
     FM010600 VRB04KT P6SM VCFG SCT005 SCT060
      AMD LTD TO CLD VIS AND WIND=



000
FTUS45 KRIW 311100
TAFBPI
TAF
KBPI 311121Z 3112/0112 27008KT P6SM VCSH SCT070 BKN100
     FM311700 29014G24KT P6SM SCT070
     FM010000 34009KT P6SM FEW080
     FM010700 VRB05KT P6SM SKC=



000
FTUS45 KRIW 311100
TAFWRL
TAF
KWRL 311121Z 3112/0112 VRB05KT P6SM VCSH SCT070 BKN100
     FM311600 33014KT P6SM VCSH SCT030 OVC060
     FM312200 34011KT P6SM FEW040 BKN100
     FM010200 VRB05KT P6SM SCT120=



000
FTUS45 KRIW 311100
TAFCOD
TAF
KCOD 311121Z 3112/0112 35009KT P6SM -SHRA SCT045 BKN060
     FM312100 VRB06KT P6SM VCSH BKN060
     FM010400 22007KT P6SM SCT060 SCT120
      AMD LTD TO CLD VIS AND WIND=



000
FTUS45 KRIW 311100
TAFLND
TAF
KLND 311121Z 3112/0112 24009KT P6SM VCSH SCT080 BKN100
     FM311700 28014G24KT P6SM SCT090
     FM312200 02011KT P6SM FEW050 SCT080
     FM010200 VRB06KT P6SM SCT080=



000
FTUS45 KRIW 311100
TAFRKS
TAF
KRKS 311121Z 3112/0112 34008KT P6SM VCSH SCT045 BKN070
     FM311700 27023G33KT P6SM SCT070
     FM010100 29014G24KT P6SM FEW090
     FM010600 25010KT P6SM SKC=



000
FTUS45 KRIW 311100
TAFJAC
TAF
KJAC 311121Z 3112/0112 VRB06KT P6SM VCSH SCT020 OVC050
      TEMPO 3112/3116 BKN025
     FM311800 24011KT P6SM VCSH SCT030 BKN060
     FM010100 25008KT P6SM BKN060
     FM010600 VRB04KT P6SM VCFG SCT005 SCT060
      AMD LTD TO CLD VIS AND WIND=



000
FTUS45 KRIW 311100
TAFRIW
TAF
KRIW 311121Z 3112/0112 21007KT P6SM VCSH SCT080 BKN120
     FM311700 30014G24KT P6SM SCT080
     FM312200 02012G18KT P6SM FEW050 SCT080
     FM010200 VRB05KT P6SM SCT080=



000
FTUS45 KRIW 311100
TAFCPR
TAF
KCPR 311121Z 3112/0112 26008KT P6SM -SHRA SCT045 OVC070
     FM311500 24010KT P6SM VCSH SCT050 BKN080
     FM311900 28014KT P6SM BKN080
     FM312300 35011KT P6SM SCT050 BKN080
     FM010800 23008KT P6SM SCT080=



000
FTUS45 KRIW 310900 AAA
TAFCOD
TAF AMD
KCOD 310936Z 3110/0106 27010G16KT P6SM VCSH SCT080 BKN100
     FM311200 36012KT 5SM -SHRA BR OVC050
     FM312100 VRB06KT P6SM VCSH BKN060
     FM010400 22007KT P6SM SCT060 SCT120
      AMD LTD TO CLD VIS AND WIND=



000
FTUS45 KRIW 310500
TAFWRL
TAF
KWRL 310537Z 3106/0106 VRB05KT P6SM VCSH SCT090 BKN120
     FM311600 33014KT P6SM VCSH SCT030 OVC060
     FM312200 34011KT P6SM FEW040 BKN100
     FM010200 VRB05KT P6SM SCT120=



000
FTUS45 KRIW 310500
TAFLND
TAF
KLND 310537Z 3106/0106 34010KT P6SM VCTS SCT070CB BKN110
     FM310700 28009KT P6SM VCSH SCT080 BKN120
     FM311700 28014G24KT P6SM SCT090
     FM312200 02011KT P6SM FEW050 SCT080
     FM010200 VRB06KT P6SM SCT080=



000
FTUS45 KRIW 310500
TAFRKS
TAF
KRKS 310537Z 3106/0106 VRB09KT P6SM -SHRA BKN060
     FM310900 27008KT P6SM VCSH SCT060 BKN150
     FM311700 27023G33KT P6SM SCT070
     FM010100 29014G24KT P6SM FEW090=



000
FTUS45 KRIW 310500
TAFRIW
TAF
KRIW 310537Z 3106/0106 VRB10KT P6SM VCTS SCT060CB BKN100
     FM310700 VRB08KT P6SM VCSH SCT080 BKN120
     FM311700 30014G24KT P6SM SCT080
     FM312200 02012G18KT P6SM FEW050 SCT080
     FM010200 VRB05KT P6SM SCT080=



000
FTUS45 KRIW 310500
TAFJAC
TAF
KJAC 310537Z 3106/0106 VRB09KT P6SM VCTS SCT070CB BKN100
     FM311100 19008KT P6SM VCSH SCT020 OVC050
     FM311800 24011KT P6SM VCSH SCT030 BKN060
     FM010100 25008KT P6SM BKN060
      AMD LTD TO CLD VIS AND WIND=



000
FTUS45 KRIW 310500
TAFBPI
TAF
KBPI 310537Z 3106/0106 VRB09KT P6SM VCTS SCT070CB BKN100
     FM311100 34007KT P6SM SCT070 BKN120
     FM311700 29014G24KT P6SM SCT070
     FM010000 34009KT P6SM FEW080=



000
FTUS45 KRIW 310500
TAFCOD
TAF
KCOD 310537Z 3106/0106 NIL=



000
FTUS45 KRIW 310500
TAFCPR
TAF
KCPR 310537Z 3106/0106 VRB05KT P6SM SCT110
     FM310800 27012G20KT P6SM VCTS SCT070CB BKN100
     FM311000 VRB08KT P6SM -SHRA SCT035 OVC070
     FM311500 24010KT P6SM VCSH SCT050 BKN080
     FM311900 28014KT P6SM BKN080
     FM312300 35011KT P6SM SCT050 BKN080=



000
FTUS45 KRIW 310000 AAA
TAFRIW
TAF AMD
KRIW 310045Z 3101/3124 01018G26KT P6SM VCSH FEW080 BKN110
     FM310200 33009KT P6SM SCT110
     FM310800 VRB08KT P6SM VCSH SCT070 BKN100
     FM311400 VRB06KT P6SM SCT080
     FM312100 31014KT P6SM SCT080
     FM312200 35018KT P6SM SCT060=



000
FTUS45 KRIW 302300
TAFCPR
TAF
KCPR 302337Z 3100/3124 25020G28KT P6SM VCSH SCT080 BKN110
     FM310130 24011KT P6SM SCT110
     FM311000 22010KT P6SM VCSH BKN060 OVC120
     FM312000 28014KT P6SM VCSH SCT060 BKN150=



000
FTUS45 KRIW 302300
TAFRIW
TAF
KRIW 302337Z 3100/3124 24012KT P6SM VCSH FEW080 BKN110
     FM310130 29011KT P6SM SCT110
     FM310800 VRB08KT P6SM VCSH SCT070 BKN100
     FM311400 VRB06KT P6SM SCT080
     FM312100 31014KT P6SM SCT080
     FM312200 35018KT P6SM SCT060=



000
FTUS45 KRIW 302300
TAFBPI
TAF
KBPI 302337Z 3100/3124 29014G20KT P6SM SCT070 BKN090
     FM310200 33009KT P6SM SCT090 BKN150
     FM310600 VRB07KT P6SM VCSH SCT060 BKN090
     FM311700 27010KT P6SM FEW060
     FM312000 27015G25KT P6SM FEW050=



000
FTUS45 KRIW 302300
TAFWRL
TAF
KWRL 302337Z 3100/3124 35010G15KT P6SM VCTS SCT080CB BKN110
     FM310200 35009KT P6SM VCSH SCT090 BKN120
     FM311100 36008KT P6SM VCSH SCT040 BKN070
     FM311600 33014KT P6SM VCSH SCT040 BKN100
     FM312200 34011KT P6SM FEW040 BKN100=



000
FTUS45 KRIW 302300
TAFRKS
TAF
KRKS 302337Z 3100/3124 24012KT P6SM SCT080
     FM310500 VRB09KT P6SM VCSH SCT060 BKN070
     FM311500 29009KT P6SM VCSH SCT050 BKN080
     FM311800 27020G30KT P6SM SCT050=



000
FTUS45 KRIW 302300
TAFCOD
TAF
KCOD 302337Z 3100/3124 VRB10G20KT P6SM VCTS SCT070CB BKN120
     FM310400 35008KT P6SM VCSH SCT050 BKN080
     FM311000 36012KT 5SM -SHRA BR OVC050
     FM312100 VRB05KT P6SM VCSH BKN060
      AMD LTD TO CLD VIS AND WIND=



000
FTUS45 KRIW 302300
TAFLND
TAF
KLND 302337Z 3100/3124 24014G22KT P6SM VCSH FEW080 BKN110
     FM310130 25011KT P6SM SCT110
     FM310800 VRB07KT P6SM VCSH OVC060
     FM311400 VRB06KT P6SM VCSH SCT060
     FM311700 35007KT P6SM SCT060=



000
FTUS45 KRIW 302300
TAFJAC
TAF
KJAC 302337Z 3100/3124 23009KT P6SM VCSH SCT070 BKN090
     FM310800 18007KT P6SM VCSH SCT050 BKN090
     FM311500 23012KT P6SM VCSH SCT015 BKN025
     FM311800 27013KT P6SM VCSH BKN030 OVC070
     FM312100 27012KT P6SM BKN040
      AMD LTD TO CLD VIS AND WIND=



000
FTUS45 KRIW 302100 AAA
TAFCOD
TAF AMD
KCOD 302106Z 3021/3118 VRB12G18KT P6SM VCTS BKN070CB
     FM310000 VRB10KT P6SM VCTS SCT060CB BKN120
     FM310400 35008KT P6SM VCSH SCT050 BKN080
     FM311000 36012KT 5SM -SHRA BR OVC050
      AMD LTD TO CLD VIS AND WIND=



000
FTUS45 KRIW 302100 AAA
TAFLND
TAF AMD
KLND 302105Z 3021/3118 23024G34KT P6SM VCTS SCT070CB BKN150
     FM310100 25011KT P6SM VCSH SCT060 BKN150
     FM310800 VRB07KT P6SM VCSH OVC060
     FM311400 VRB06KT P6SM FEW060=



000
FTUS45 KRIW 302100 AAA
TAFCPR
TAF AMD
KCPR 302104Z 3021/3118 24025G35KT P6SM VCTS SCT080CB BKN120
     FM310000 23017KT P6SM VCSH BKN080
     FM310400 23011KT P6SM FEW070
     FM311000 22010KT P6SM VCSH SCT060 BKN120=



000
FTUS45 KRIW 302100 AAA
TAFJAC
TAF AMD
KJAC 302104Z 3021/3118 24016G26KT P6SM VCTS SCT050CB BKN070
     FM310200 22011KT P6SM VCSH SCT050 BKN110
     FM310900 18007KT P6SM VCSH SCT050 BKN100
     FM311500 23012KT P6SM VCSH SCT015 BKN025
      AMD LTD TO CLD VIS AND WIND=



000
FTUS45 KRIW 301700
TAFBPI
TAF
KBPI 301720Z 3018/3118 18011KT P6SM VCSH SCT120
     FM301900 28022G32KT P6SM VCTS SCT070CB BKN100
     FM310200 30011KT P6SM VCSH SCT090 BKN120
     FM311000 VRB07KT P6SM VCSH SCT060
     FM311600 27010KT P6SM FEW060=



000
FTUS45 KRIW 301700
TAFRKS
TAF
KRKS 301720Z 3018/3118 24017G22KT P6SM VCSH SCT100
     FM301900 25022G32KT P6SM VCTS SCT070CB BKN080
     FM310000 23012KT P6SM VCSH SCT060 SCT100
     FM310500 VRB09KT P6SM VCSH SCT060 BKN070
     FM311500 27009KT P6SM VCSH SCT060 BKN080=



000
FTUS45 KRIW 301700
TAFCOD
TAF
KCOD 301720Z 3018/3118 VRB12G18KT P6SM VCTS SCT070CB BKN110
     FM310000 VRB10KT P6SM VCTS SCT060CB BKN120
     FM310400 35008KT P6SM VCSH SCT050 BKN080
     FM311000 36012KT 5SM -SHRA BR OVC050
      AMD LTD TO CLD VIS AND WIND=



000
FTUS45 KRIW 301700
TAFCPR
TAF
KCPR 301720Z 3018/3118 22020G30KT P6SM SCT110
     FM301900 22025G35KT P6SM VCTS SCT080CB BKN120
     FM310000 23017KT P6SM VCSH BKN080
     FM310400 23011KT P6SM FEW070
     FM311000 22010KT P6SM VCSH SCT060 BKN120=



000
FTUS45 KRIW 301700
TAFWRL
TAF
KWRL 301720Z 3018/3118 18010KT P6SM SCT110
     FM302000 23015G25KT P6SM VCTS SCT090CB BKN110
     FM302300 33017G28KT P6SM VCTS SCT090CB BKN100
     FM310200 35009KT P6SM VCTS BKN070CB
     FM310400 30006KT P6SM VCSH SCT050 BKN090
     FM311200 35008KT P6SM VCSH SCT070 BKN100=



000
FTUS45 KRIW 301700
TAFJAC
TAF
KJAC 301720Z 3018/3118 22011KT P6SM VCSH SCT060 SCT110
     FM302000 22016G26KT P6SM VCTS SCT050CB BKN070
     FM310200 22011KT P6SM VCSH SCT050 BKN110
     FM310900 18007KT P6SM VCSH SCT050 BKN100
     FM311500 23012KT P6SM VCSH SCT015 BKN025
      AMD LTD TO CLD VIS AND WIND=



000
FTUS45 KRIW 301700
TAFLND
TAF
KLND 301720Z 3018/3118 18012G20KT P6SM VCSH SCT100
     FM302000 23018G28KT P6SM VCTS SCT070CB BKN150
     FM310100 25011KT P6SM VCSH SCT060 BKN150
     FM310800 VRB07KT P6SM VCSH OVC060
     FM311400 VRB06KT P6SM FEW060=



000
FTUS45 KRIW 301700
TAFRIW
TAF
KRIW 301720Z 3018/3118 22011KT P6SM VCSH SCT120
     FM302000 24020G30KT P6SM VCTS SCT090CB BKN150
     FM310100 VRB10G18KT P6SM VCTS BKN080CB
     FM310500 VRB08KT P6SM VCSH SCT070 BKN100
     FM311200 VRB06KT P6SM SCT080=



    US Dept of Commerce
    National Oceanic and Atmospheric Administration
    National Weather Service
    1325 East West Highway
    Silver Spring, MD 20910
    Page Author: NWS Internet Services Team
Disclaimer
Information Quality
Credits
Glossary
Privacy Policy
Freedom of Information Act (FOIA)
About Us
Career Opportunities